الصفحة الرئيسية
METAR-TAF:

METAR-TAF

مطار :

مطار كابل الدولي

كابل, أفغانستان

دائرة عرض: 34-38N, خط طول: 069-12E, ارتفاع: 1789 متر

مراقبة الطقس الحالي

تاريخ ووقت الإصدار 10 دقيقة قبل الساعة 03:50UTC
ريح 4 عقدة من الغرب/الشمال الغربي
درجة الحرارة 14°درجة مئوية
الرطوبة 18%
ضغط 1024 hPa
الرؤية: 3000 متر
دخان

METAR: OAKB 230350Z 29004KT 7000 3000E FU NSC 14/M10 Q1024 NOSIG RMK A3024 WHT WHT

زمن: 08:30 (04:00 UTC)

توقعات

تاريخ ووقت الإصدار 4ساعات و 55 دقيقة قبل الساعة 23:05UTC
التوقعات صالحة من23 الساعة 00 UTC إلى 23 الساعة 24 UTC
ريح 2 عقدةمن اتجاهات متغيرة
الرؤية 10 كم أو أكثر
الغيوم لا تقل 1500 م ولا وجود لمزنة ركامية السحاب الأسود
نظرية الاحتمالات 30% :
مؤقت
من 23 الساعة 01 UTC إلى 23 الساعة 04 UTC
الرؤية: 5000 متر
دخان
أصبح
من 23 الساعة 08 UTC إلى 23 الساعة 10 UTC
غيوم متفرقة على ارتفاع 8000 قدم
أصبح
من 23 الساعة 16 UTC إلى 23 الساعة 18 UTC
الرؤية 10 كم أو أكثر
الغيوم لا تقل 1500 م ولا وجود لمزنة ركامية السحاب الأسود

TAF: OAKB 222305Z 2300/2324 VRB02KT CAVOK PROB30 TEMPO 2301/2304 5000 FU BECMG 2308/2310 SCT080 BECMG 2316/2318 CAVOK

أرصاد الطقس والتوقعات من أكثر من 4000 مطار (تقارير الطقس للمطار METAR والتنبؤ بالطقس بالمطارTAF).

المحطات المتاحة هي النقط الصفراء والحمراء على الخريطة.

حرك المؤشر فوق النقطة لمعرفة اسم المحطة.

ثم انقر لمعرفة أرصاد وتوقعات الطقس.

لتغيير الخارطة: اضغط على الأزرار الخضراء مع رمز الصليب الأسود للتكبير. على الزر الأخضر مع شرطة للتصغير، أو على الأسهم الخضراء للخرائط المجاورة.


METAR-TAF: